Time;durP1;ratioP1;P1;durP2;ratioP2;P2;SDS_P1;SDS_P2;PMS_P1;PMS_P2;Temp;Humidity;BMP_temperature;BMP_pressure;BME280_temperature;BME280_humidity;BME280_pressure;Samples;Min_cycle;Max_cycle;Signal;HPM_P1;HPM_P2
2023/10/26 00:01:18;;;;;;;;;;;;;;;;;;5110794;28;19999;-71
2023/10/26 00:03:44;;;;;;;;;;;;;;;;;;5111260;28;19908;-72
2023/10/26 00:06:10;;;;;;;;;;;;;;;;;;5110995;28;19970;-71
2023/10/26 00:08:36;;;;;;;;;;;;;;;;;;5110600;28;19908;-71
2023/10/26 00:11:02;;;;;;;;;;;;;;;;;;5110995;28;19911;-71
2023/10/26 00:13:28;;;;;;;;;;;;;;;;;;5111191;28;19908;-71
2023/10/26 00:15:54;;;;;;;;;;;;;;;;;;5109187;28;19912;-71
2023/10/26 00:18:20;;;;;;;;;;;;;;;;;;5110857;28;20010;-71
2023/10/26 00:20:46;;;;;;;;;;;;;;;;;;5110293;28;19908;-70
2023/10/26 00:23:12;;;;;;;;;;;;;;;;;;5110716;28;19919;-72
2023/10/26 00:25:38;;;;;;;;;;;;;;;;;;5110418;28;19924;-70
2023/10/26 00:29:05;;;;;;;;;;;;;;;;;;5091412;27;19923;-71
2023/10/26 00:31:31;;;;;;;;;;;;;;;;;;5091416;28;19919;-71
2023/10/26 00:33:57;;;;;;;;;;;;;;;;;;5091467;28;19908;-71
2023/10/26 00:36:23;;;;;;;;;;;;;;;;;;5090893;28;20011;-71
2023/10/26 00:38:49;;;;;;;;;;;;;;;;;;5091318;28;19915;-71
2023/10/26 00:41:15;;;;;;;;;;;;;;;;;;5090008;28;19913;-70
2023/10/26 00:43:41;;;;;;;;;;;;;;;;;;5089471;28;20288;-70
2023/10/26 00:46:10;;;;;;;;;;;;;;;;;;5091348;28;19909;-70
2023/10/26 00:48:36;;;;;;;;;;;;;;;;;;5089670;28;19917;-70
2023/10/26 00:51:03;;;;;;;;;;;;;;;;;;5090644;28;19916;-70
2023/10/26 00:53:28;;;;;;;;;;;;;;;;;;5091033;28;19994;-71
2023/10/26 00:57:17;;;;;;;;;;;;;;;;;;5152688;27;20088;-70
2023/10/26 00:59:43;;;;;;;;;;;;;;;;;;5134409;27;19911;-70
2023/10/26 01:02:09;;;;;;;;;;;;;;;;;;5152880;27;20002;-71
2023/10/26 01:05:41;;;;;;;;;;;;;;;;;;5091431;27;20269;-70
2023/10/26 01:08:07;;;;;;;;;;;;;;;;;;5091408;28;20399;-71
2023/10/26 01:10:33;;;;;;;;;;;;;;;;;;5090936;28;19908;-71
2023/10/26 01:12:59;;;;;;;;;;;;;;;;;;5091383;28;19954;-71
2023/10/26 01:15:25;;;;;;;;;;;;;;;;;;5091216;28;19908;-71
2023/10/26 01:17:51;;;;;;;;;;;;;;;;;;5090763;28;19912;-71
2023/10/26 01:20:17;;;;;;;;;;;;;;;;;;5089940;28;19908;-70
2023/10/26 01:22:43;;;;;;;;;;;;;;;;;;5091084;28;20002;-70
2023/10/26 01:25:09;;;;;;;;;;;;;;;;;;5090607;28;19916;-71
2023/10/26 01:27:37;;;;;;;;;;;;;;;;;;5090948;28;19966;-71
2023/10/26 01:30:03;;;;;;;;;;;;;;;;;;5091268;28;19915;-71
2023/10/26 01:32:29;;;;;;;;;;;;;;;;;;5089287;28;19924;-71
2023/10/26 01:34:55;;;;;;;;;;;;;;;;;;5090895;28;19909;-71
2023/10/26 01:37:21;;;;;;;;;;;;;;;;;;5090949;28;19913;-71
2023/10/26 01:39:47;;;;;;;;;;;;;;;;;;5090544;28;19959;-70
2023/10/26 01:42:13;;;;;;;;;;;;;;;;;;5090757;28;19962;-70
2023/10/26 01:44:38;;;;;;;;;;;;;;;;;;5089411;28;19917;-70
2023/10/26 01:47:04;;;;;;;;;;;;;;;;;;5090301;28;19951;-71
2023/10/26 01:49:30;;;;;;;;;;;;;;;;;;5090588;28;20288;-70
2023/10/26 01:51:56;;;;;;;;;;;;;;;;;;5090544;28;19954;-71
2023/10/26 01:54:22;;;;;;;;;;;;;;;;;;5090158;28;19944;-71
2023/10/26 01:56:48;;;;;;;;;;;;;;;;;;5090472;28;19915;-71
2023/10/26 01:59:14;;;;;;;;;;;;;;;;;;5090047;28;19909;-71
2023/10/26 02:01:40;;;;;;;;;;;;;;;;;;5089073;28;19950;-70
2023/10/26 02:04:06;;;;;;;;;;;;;;;;;;5090323;28;19927;-71
2023/10/26 02:06:32;;;;;;;;;;;;;;;;;;5089921;28;19912;-71
2023/10/26 02:08:58;;;;;;;;;;;;;;;;;;5090233;28;20465;-71
2023/10/26 02:11:24;;;;;;;;;;;;;;;;;;5090527;28;20013;-71
2023/10/26 02:13:50;;;;;;;;;;;;;;;;;;5089752;28;19915;-70
2023/10/26 02:16:18;;;;;;;;;;;;;;;;;;5080856;28;19909;-70
2023/10/26 02:18:44;;;;;;;;;;;;;;;;;;5076938;28;19955;-70
2023/10/26 02:21:10;;;;;;;;;;;;;;;;;;5074848;28;19909;-70
2023/10/26 02:23:36;;;;;;;;;;;;;;;;;;5076399;28;19913;-70
2023/10/26 02:26:02;;;;;;;;;;;;;;;;;;5075209;28;20007;-71
2023/10/26 02:28:28;;;;;;;;;;;;;;;;;;5076029;28;19908;-71
2023/10/26 02:30:54;;;;;;;;;;;;;;;;;;5075150;28;19954;-71
2023/10/26 02:33:20;;;;;;;;;;;;;;;;;;5076543;28;19908;-71
2023/10/26 02:35:46;;;;;;;;;;;;;;;;;;5075967;28;19909;-71
2023/10/26 02:38:12;;;;;;;;;;;;;;;;;;5076173;28;19935;-70
2023/10/26 02:40:38;;;;;;;;;;;;;;;;;;5076148;28;19909;-71
2023/10/26 02:43:03;;;;;;;;;;;;;;;;;;5075764;28;19909;-71
2023/10/26 02:45:30;;;;;;;;;;;;;;;;;;5076433;28;20433;-71
2023/10/26 02:47:56;;;;;;;;;;;;;;;;;;5076231;28;19909;-71
2023/10/26 02:50:22;;;;;;;;;;;;;;;;;;5075568;28;19908;-71
2023/10/26 02:52:48;;;;;;;;;;;;;;;;;;5076051;28;19915;-71
2023/10/26 02:55:14;;;;;;;;;;;;;;;;;;5074663;28;20023;-71
2023/10/26 02:57:40;;;;;;;;;;;;;;;;;;5074486;28;20280;-71
2023/10/26 03:00:06;;;;;;;;;;;;;;;;;;5076321;28;19948;-72
2023/10/26 03:02:32;;;;;;;;;;;;;;;;;;5075423;28;19909;-71
2023/10/26 03:04:58;;;;;;;;;;;;;;;;;;5075437;28;20291;-71
2023/10/26 03:07:24;;;;;;;;;;;;;;;;;;5074363;28;19908;-71
2023/10/26 03:09:50;;;;;;;;;;;;;;;;;;5075264;28;19999;-71
2023/10/26 03:12:16;;;;;;;;;;;;;;;;;;5075545;28;19955;-71
2023/10/26 03:14:42;;;;;;;;;;;;;;;;;;5075526;28;19908;-71
2023/10/26 03:17:09;;;;;;;;;;;;;;;;;;5074976;28;19908;-71
2023/10/26 03:19:35;;;;;;;;;;;;;;;;;;5075427;28;19916;-71
2023/10/26 03:22:01;;;;;;;;;;;;;;;;;;5075465;28;19913;-71
2023/10/26 03:24:27;;;;;;;;;;;;;;;;;;5073519;28;20009;-71
2023/10/26 03:26:53;;;;;;;;;;;;;;;;;;5074616;28;19962;-71
2023/10/26 03:29:21;;;;;;;;;;;;;;;;;;5074845;28;19915;-71
2023/10/26 03:31:47;;;;;;;;;;;;;;;;;;5074858;28;19909;-72
2023/10/26 03:34:13;;;;;;;;;;;;;;;;;;5075061;28;20386;-72
2023/10/26 03:36:39;;;;;;;;;;;;;;;;;;5073638;28;19999;-71
2023/10/26 03:39:05;;;;;;;;;;;;;;;;;;5074648;28;19908;-71
2023/10/26 03:41:30;;;;;;;;;;;;;;;;;;5074987;28;19908;-72
2023/10/26 03:43:56;;;;;;;;;;;;;;;;;;5074773;28;19962;-71
2023/10/26 03:46:22;;;;;;;;;;;;;;;;;;5074561;28;19909;-71
2023/10/26 03:48:50;;;;;;;;;;;;;;;;;;5075012;28;19908;-71
2023/10/26 03:51:16;;;;;;;;;;;;;;;;;;5074883;28;19909;-71
2023/10/26 03:53:42;;;;;;;;;;;;;;;;;;5074437;28;19916;-72
2023/10/26 03:56:08;;;;;;;;;;;;;;;;;;5075240;28;20387;-71
2023/10/26 03:58:34;;;;;;;;;;;;;;;;;;5074528;28;20353;-71
2023/10/26 04:01:00;;;;;;;;;;;;;;;;;;5074185;28;19909;-72
2023/10/26 04:03:26;;;;;;;;;;;;;;;;;;5074250;28;19962;-71
2023/10/26 04:05:52;;;;;;;;;;;;;;;;;;5074467;28;19908;-71
2023/10/26 04:08:18;;;;;;;;;;;;;;;;;;5074459;28;20449;-71
2023/10/26 04:10:44;;;;;;;;;;;;;;;;;;5074406;28;20249;-71
2023/10/26 04:13:10;;;;;;;;;;;;;;;;;;5074007;28;20257;-71
2023/10/26 04:15:36;;;;;;;;;;;;;;;;;;5074346;28;20283;-71
2023/10/26 04:18:02;;;;;;;;;;;;;;;;;;5074314;28;19908;-71
2023/10/26 04:20:28;;;;;;;;;;;;;;;;;;5073939;28;19920;-71
2023/10/26 04:22:54;;;;;;;;;;;;;;;;;;5074299;28;19908;-71
2023/10/26 04:25:21;;;;;;;;;;;;;;;;;;5074279;28;19942;-71
2023/10/26 04:27:47;;;;;;;;;;;;;;;;;;5073760;28;19961;-71
2023/10/26 04:30:14;;;;;;;;;;;;;;;;;;5074165;28;19995;-71
2023/10/26 04:32:42;;;;;;;;;;;;;;;;;;5074073;28;20403;-71
2023/10/26 04:35:08;;;;;;;;;;;;;;;;;;5073699;28;19909;-71
2023/10/26 04:37:34;;;;;;;;;;;;;;;;;;5073960;28;19909;-71
2023/10/26 04:40:00;;;;;;;;;;;;;;;;;;5073713;28;19954;-71
2023/10/26 04:42:26;;;;;;;;;;;;;;;;;;5073580;28;19909;-71
2023/10/26 04:44:51;;;;;;;;;;;;;;;;;;5073866;28;19924;-70
2023/10/26 04:47:17;;;;;;;;;;;;;;;;;;5073895;28;20269;-70
2023/10/26 04:49:43;;;;;;;;;;;;;;;;;;5073496;28;19916;-71
2023/10/26 04:52:14;;;;;;;;;;;;;;;;;;5072598;28;19909;-70
2023/10/26 04:54:40;;;;;;;;;;;;;;;;;;5073822;28;19947;-70
2023/10/26 04:57:06;;;;;;;;;;;;;;;;;;5073464;28;19936;-71
2023/10/26 04:59:32;;;;;;;;;;;;;;;;;;5072474;28;19912;-70
2023/10/26 05:01:57;;;;;;;;;;;;;;;;;;5073859;28;19916;-71
2023/10/26 05:04:23;;;;;;;;;;;;;;;;;;5073115;28;20350;-72
2023/10/26 05:06:51;;;;;;;;;;;;;;;;;;5073739;28;20370;-71
2023/10/26 05:09:17;;;;;;;;;;;;;;;;;;5073268;28;19909;-71
2023/10/26 05:11:43;;;;;;;;;;;;;;;;;;5073708;28;19908;-71
2023/10/26 05:14:09;;;;;;;;;;;;;;;;;;5072157;28;19977;-71
2023/10/26 05:16:36;;;;;;;;;;;;;;;;;;5070481;28;19908;-71
2023/10/26 05:19:02;;;;;;;;;;;;;;;;;;5073392;28;19915;-71
2023/10/26 05:21:28;;;;;;;;;;;;;;;;;;5070772;28;19924;-71
2023/10/26 05:23:54;;;;;;;;;;;;;;;;;;5071235;28;19927;-72
2023/10/26 05:26:20;;;;;;;;;;;;;;;;;;5071915;28;19920;-71
2023/10/26 05:28:46;;;;;;;;;;;;;;;;;;5069951;28;20003;-71
2023/10/26 05:31:12;;;;;;;;;;;;;;;;;;5066357;28;19935;-70
2023/10/26 05:33:38;;;;;;;;;;;;;;;;;;5070441;28;20423;-70
2023/10/26 05:36:04;;;;;;;;;;;;;;;;;;5067457;28;20284;-70
2023/10/26 05:38:30;;;;;;;;;;;;;;;;;;5071999;28;20299;-70
2023/10/26 05:40:56;;;;;;;;;;;;;;;;;;5064733;28;20341;-70
2023/10/26 05:43:22;;;;;;;;;;;;;;;;;;5055860;28;19913;-69
2023/10/26 05:45:48;;;;;;;;;;;;;;;;;;5054902;28;19963;-70
2023/10/26 05:48:16;;;;;;;;;;;;;;;;;;5071436;28;19908;-70
2023/10/26 05:50:42;;;;;;;;;;;;;;;;;;5062129;28;20565;-70
2023/10/26 05:53:08;;;;;;;;;;;;;;;;;;5069106;28;19913;-70
2023/10/26 05:55:34;;;;;;;;;;;;;;;;;;5068160;28;19961;-70
2023/10/26 05:58:00;;;;;;;;;;;;;;;;;;5073285;28;19913;-71
2023/10/26 06:00:26;;;;;;;;;;;;;;;;;;5067756;28;19923;-71
2023/10/26 06:02:52;;;;;;;;;;;;;;;;;;5094611;28;19908;-70
2023/10/26 06:05:18;;;;;;;;;;;;;;;;;;5076236;28;20058;-69
2023/10/26 06:07:44;;;;;;;;;;;;;;;;;;5074680;28;19959;-70
2023/10/26 06:10:11;;;;;;;;;;;;;;;;;;5074682;28;19909;-70
2023/10/26 06:12:37;;;;;;;;;;;;;;;;;;5062963;28;19919;-70
2023/10/26 06:15:03;;;;;;;;;;;;;;;;;;5073356;28;19967;-70
2023/10/26 06:17:29;;;;;;;;;;;;;;;;;;5074007;28;20344;-69
2023/10/26 06:19:55;;;;;;;;;;;;;;;;;;5074692;28;19915;-70
2023/10/26 06:22:22;;;;;;;;;;;;;;;;;;5075529;28;19931;-70
2023/10/26 06:24:48;;;;;;;;;;;;;;;;;;5074215;28;20277;-71
2023/10/26 06:27:14;;;;;;;;;;;;;;;;;;5073174;28;19912;-71
2023/10/26 06:29:40;;;;;;;;;;;;;;;;;;5074189;28;19934;-70
2023/10/26 06:32:06;;;;;;;;;;;;;;;;;;5073662;28;19973;-70
2023/10/26 06:34:31;;;;;;;;;;;;;;;;;;5067297;28;20304;-72
2023/10/26 06:36:59;;;;;;;;;;;;;;;;;;5075168;28;19975;-70
2023/10/26 06:39:25;;;;;;;;;;;;;;;;;;5076489;28;19913;-71
2023/10/26 06:41:51;;;;;;;;;;;;;;;;;;5087260;28;19909;-71
2023/10/26 06:44:17;;;;;;;;;;;;;;;;;;5061835;28;20018;-70
2023/10/26 06:46:43;;;;;;;;;;;;;;;;;;5075305;28;20040;-71
2023/10/26 06:49:09;;;;;;;;;;;;;;;;;;5073505;28;20002;-71
2023/10/26 06:51:36;;;;;;;;;;;;;;;;;;5075266;28;19915;-70
2023/10/26 06:54:02;;;;;;;;;;;;;;;;;;5075297;28;19999;-70
2023/10/26 06:56:27;;;;;;;;;;;;;;;;;;5074960;28;19912;-70
2023/10/26 06:58:53;;;;;;;;;;;;;;;;;;5074724;28;19919;-70
2023/10/26 07:01:19;;;;;;;;;;;;;;;;;;5072982;28;19912;-70
2023/10/26 07:03:45;;;;;;;;;;;;;;;;;;5072662;28;20446;-71
2023/10/26 07:06:11;;;;;;;;;;;;;;;;;;5073207;28;20410;-71
2023/10/26 07:08:37;;;;;;;;;;;;;;;;;;5059179;28;20325;-70
2023/10/26 07:11:04;;;;;;;;;;;;;;;;;;5069948;28;19912;-70
2023/10/26 07:13:30;;;;;;;;;;;;;;;;;;5051520;28;19912;-68
2023/10/26 07:15:56;;;;;;;;;;;;;;;;;;5071121;28;20478;-69
2023/10/26 07:18:22;;;;;;;;;;;;;;;;;;5061748;28;19937;-69
2023/10/26 07:20:49;;;;;;;;;;;;;;;;;;5068347;28;19908;-70
2023/10/26 07:23:16;;;;;;;;;;;;;;;;;;5069298;28;20667;-70
2023/10/26 07:25:42;;;;;;;;;;;;;;;;;;5069195;28;19943;-70
2023/10/26 07:28:08;;;;;;;;;;;;;;;;;;5069948;28;20368;-70
2023/10/26 07:30:33;;;;;;;;;;;;;;;;;;5071452;28;19999;-70
2023/10/26 07:32:59;;;;;;;;;;;;;;;;;;5071522;28;19913;-70
2023/10/26 07:35:25;;;;;;;;;;;;;;;;;;5071005;28;20365;-70
2023/10/26 07:37:52;;;;;;;;;;;;;;;;;;5070752;28;20345;-71
2023/10/26 07:41:47;;;;;;;;;;;;;;;;;;5079631;27;19920;-70
2023/10/26 07:44:13;;;;;;;;;;;;;;;;;;5066169;28;19960;-69
2023/10/26 07:46:39;;;;;;;;;;;;;;;;;;5068354;28;19983;-69
2023/10/26 07:49:05;;;;;;;;;;;;;;;;;;5070047;28;19965;-70
2023/10/26 07:53:28;;;;;;;;;;;;;;;;;;5110984;27;20376;-70
2023/10/26 07:57:01;;;;;;;;;;;;;;;;;;5090034;28;19920;-70
2023/10/26 07:59:27;;;;;;;;;;;;;;;;;;5090318;28;20614;-71
2023/10/26 08:04:15;;;;;;;;;;;;;;;;;;5104350;27;19916;-69
2023/10/26 08:08:07;;;;;;;;;;;;;;;;;;5083744;28;20419;-69
2023/10/26 08:10:36;;;;;;;;;;;;;;;;;;5070565;28;19913;-70
2023/10/26 08:17:21;;;;;;;;;;;;;;;;;;5082303;27;19917;-69
2023/10/26 08:19:47;;;;;;;;;;;;;;;;;;5067244;28;20000;-70
2023/10/26 08:22:13;;;;;;;;;;;;;;;;;;5067068;28;20007;-70
2023/10/26 08:24:39;;;;;;;;;;;;;;;;;;5066576;28;19917;-71
2023/10/26 08:27:05;;;;;;;;;;;;;;;;;;5065696;28;19909;-70
2023/10/26 08:29:31;;;;;;;;;;;;;;;;;;5065597;28;19967;-71
2023/10/26 08:31:57;;;;;;;;;;;;;;;;;;5065704;28;19962;-71
2023/10/26 08:34:23;;;;;;;;;;;;;;;;;;5066768;28;19932;-71
2023/10/26 08:36:49;;;;;;;;;;;;;;;;;;5065886;28;20022;-71
2023/10/26 08:39:16;;;;;;;164.80;150.15;;;;;;;;;;5067505;28;20410;-70
2023/10/26 08:41:50;;;;;;;;;;;;;;;;;;5109997;27;19938;-70
2023/10/26 08:44:17;;;;;;;;;;;;;;;;;;5108218;28;19912;-72
2023/10/26 08:46:43;;;;;;;;;;;;;;;;;;5131785;28;19929;-71
2023/10/26 08:49:09;;;;;;;;;;;;;;;;;;5128068;28;19907;-71
2023/10/26 08:51:35;;;;;;;;;;;;;;;;;;5131294;28;19919;-71
2023/10/26 08:54:01;;;;;;;;;;;;;;;;;;5128587;28;19908;-71
2023/10/26 08:56:27;;;;;;;;;;;;;;;;;;5125190;28;19916;-72
2023/10/26 08:58:53;;;;;;;;;;;;;;;;;;5103770;27;20382;-71
2023/10/26 09:01:19;;;;;;;;;;;;;;;;;;5107524;28;19919;-71
2023/10/26 09:03:45;;;;;;;;;;;;;;;;;;5107050;28;19953;-71
2023/10/26 09:06:11;;;;;;;;;;;;;;;;;;5109192;28;19974;-71
2023/10/26 09:08:37;;;;;;;;;;;;;;;;;;5107879;28;20320;-71
2023/10/26 09:11:04;;;;;;;;;;;;;;;;;;5110384;28;20299;-71
2023/10/26 09:13:30;;;;;;;;;;;;;;;;;;5110363;28;20061;-71
2023/10/26 09:15:59;;;;;;;;;;;;;;;;;;5108574;28;20011;-72
2023/10/26 09:18:25;;;;;;;;;;;;;;;;;;5110255;28;19952;-68
2023/10/26 09:20:51;;;;;;;;;;;;;;;;;;5108660;28;19927;-71
2023/10/26 09:23:17;;;;;;;;;;;;;;;;;;5109266;28;19965;-71
2023/10/26 09:25:43;;;;;;;;;;;;;;;;;;5107709;28;19919;-73
2023/10/26 09:28:09;;;;;;;;;;;;;;;;;;5106220;28;19918;-71
2023/10/26 09:30:36;;;;;;;;;;;;;;;;;;5108726;28;20384;-71
2023/10/26 09:33:04;;;;;;;;;;;;;;;;;;5108774;28;19908;-71
2023/10/26 09:35:30;;;;;;;;;;;;;;;;;;5101747;28;19936;-71
2023/10/26 09:37:57;;;;;;;;;;;;;;;;;;5086622;28;19916;-71
2023/10/26 09:40:23;;;;;;;;;;;;;;;;;;5094939;28;19924;-71
2023/10/26 09:42:49;;;;;;;;;;;;;;;;;;5108039;28;20369;-71
2023/10/26 09:45:14;;;;;;;;;;;;;;;;;;5107655;28;20356;-72
2023/10/26 09:47:40;;;;;;;;;;;;;;;;;;5107053;28;19981;-71
2023/10/26 09:50:06;;;;;;;;;;;;;;;;;;5108188;28;19916;-71
2023/10/26 09:52:32;;;;;;;;;;;;;;;;;;5096221;28;20007;-73
2023/10/26 09:54:59;;;;;;;;;;;;;;;;;;5103160;28;19920;-70
2023/10/26 09:57:24;;;;;;;;;;;;;;;;;;5091308;28;19908;-72
2023/10/26 09:59:50;;;;;;;;;;;;;;;;;;5093082;28;20428;-70
2023/10/26 10:02:16;;;;;;;;;;;;;;;;;;5092811;28;19912;-71
2023/10/26 10:04:42;;;;;;;;;;;;;;;;;;5094080;28;19908;-71
2023/10/26 10:07:08;;;;;;;;;;;;;;;;;;5094907;28;20387;-70
2023/10/26 10:09:34;;;;;;;;;;;;;;;;;;5098788;28;19908;-71
2023/10/26 10:12:00;;;;;;;;;;;;;;;;;;5096494;28;19927;-71
2023/10/26 10:14:26;;;;;;;;;;;;;;;;;;5095983;28;20003;-69
2023/10/26 10:16:52;;;;;;;;;;;;;;;;;;5096079;28;19908;-71
2023/10/26 10:19:18;;;;;;;;;;;;;;;;;;5095253;28;19908;-71
2023/10/26 10:21:44;;;;;;;;;;;;;;;;;;5095759;28;19923;-71
2023/10/26 10:24:10;;;;;;;;;;;;;;;;;;5095803;28;20045;-71
2023/10/26 10:26:36;;;;;;;;;;;;;;;;;;5094095;28;19930;-72
2023/10/26 10:29:03;;;;;;;;;;;;;;;;;;5093956;28;19908;-71
2023/10/26 10:31:29;;;;;;;;;;;;;;;;;;5094486;28;19987;-72
2023/10/26 10:33:55;;;;;;;;;;;;;;;;;;5093871;28;20294;-72
2023/10/26 10:36:21;;;;;;;;;;;;;;;;;;5092055;28;20003;-70
2023/10/26 10:38:47;;;;;;;;;;;;;;;;;;5091612;28;19908;-71
2023/10/26 10:41:15;;;;;;;;;;;;;;;;;;5092242;28;20288;-70
2023/10/26 10:43:44;;;;;;;;;;;;;;;;;;5093051;28;19908;-70
2023/10/26 10:46:10;;;;;;;;;;;;;;;;;;5092506;28;19996;-70
2023/10/26 10:48:36;;;;;;;;;;;;;;;;;;5091507;28;19999;-70
2023/10/26 10:51:02;;;;;;;;;;;;;;;;;;5091686;28;19912;-70
2023/10/26 10:53:29;;;;;;;;;;;;;;;;;;5091654;28;20081;-71
2023/10/26 10:55:55;;;;;;;;;;;;;;;;;;5091900;28;20368;-70
2023/10/26 10:58:21;;;;;;;;;;;;;;;;;;5091338;28;19908;-70
2023/10/26 11:00:49;;;;;;;;;;;;;;;;;;5092060;28;19916;-71
2023/10/26 11:03:15;;;;;;;;;;;;;;;;;;5092365;28;20284;-71
2023/10/26 11:05:41;;;;;;;;;;;;;;;;;;5093001;28;19908;-70
2023/10/26 11:08:07;;;;;;;;;;;;;;;;;;5092548;28;19923;-70
2023/10/26 11:10:33;;;;;;;;;;;;;;;;;;5092565;28;19908;-70
2023/10/26 11:12:59;;;;;;;;;;;;;;;;;;5093989;28;19908;-71
2023/10/26 11:15:34;;;;;;;440.48;271.95;;;;;;;;;;5089062;28;20384;-71
2023/10/26 11:18:01;;;;;;;;;;;;;;;;;;5090463;28;20040;-71
2023/10/26 11:20:27;;;;;;;;;;;;;;;;;;5086173;28;19918;-71
2023/10/26 11:23:02;;;;;;;;;;;;;;;;;;5086861;28;19907;-70
2023/10/26 11:25:29;;;;;;;;;;;;;;;;;;5092050;28;19910;-71
2023/10/26 11:27:55;;;;;;;;;;;;;;;;;;5093424;28;19903;-70
2023/10/26 11:30:20;;;;;;;;;;;;;;;;;;5091337;28;19947;-71
2023/10/26 11:32:47;;;;;;;;;;;;;;;;;;5092454;28;19966;-71
2023/10/26 11:35:19;;;;;;;;;;;;;;;;;;5090271;28;19908;-71
2023/10/26 11:37:45;;;;;;;;;;;;;;;;;;5091146;28;19908;-71
2023/10/26 11:40:11;;;;;;;;;;;;;;;;;;5091713;28;19927;-70
2023/10/26 11:42:36;;;;;;;;;;;;;;;;;;5093609;28;20327;-70
2023/10/26 11:45:08;;;;;;;;;;;;;;;;;;5092932;28;20837;-70
2023/10/26 11:47:33;;;;;;;;;;;;;;;;;;5093357;28;19946;-71
2023/10/26 11:50:00;;;;;;;;;;;;;;;;;;5091878;28;19947;-71
2023/10/26 11:52:26;;;;;;;;;;;;;;;;;;5091627;28;19904;-71
2023/10/26 11:54:52;;;;;;;;;;;;;;;;;;5092048;28;19950;-70
2023/10/26 11:57:18;;;;;;;;;;;;;;;;;;5093618;28;20668;-70
2023/10/26 11:59:44;;;;;;;;;;;;;;;;;;5093705;28;19957;-71
2023/10/26 12:02:10;;;;;;;;;;;;;;;;;;5094155;28;19953;-70
2023/10/26 12:04:36;;;;;;;;;;;;;;;;;;5093882;28;19904;-71
2023/10/26 12:07:02;;;;;;;;;;;;;;;;;;5094113;28;19904;-70
2023/10/26 12:09:28;;;;;;;;;;;;;;;;;;5089432;28;19904;-70
2023/10/26 12:11:54;;;;;;;;;;;;;;;;;;5090261;28;19929;-71
2023/10/26 12:14:20;;;;;;;;;;;;;;;;;;5092151;28;20035;-71
2023/10/26 12:16:47;;;;;;;;;;;;;;;;;;5093376;28;19918;-71
2023/10/26 12:19:13;;;;;;;;;;;;;;;;;;5090089;28;20368;-71
2023/10/26 12:21:39;;;;;;;;;;;;;;;;;;5089982;28;19996;-72
2023/10/26 12:24:05;;;;;;;;;;;;;;;;;;5093677;28;19904;-72
2023/10/26 12:26:31;;;;;;;;;;;;;;;;;;5093486;28;19908;-72
2023/10/26 12:28:57;;;;;;;;;;;;;;;;;;5093142;28;19904;-71
2023/10/26 12:31:23;;;;;;;;;;;;;;;;;;5091832;28;19911;-71
2023/10/26 12:33:49;;;;;;;;;;;;;;;;;;5091069;28;19973;-71
2023/10/26 12:36:16;;;;;;;;;;;;;;;;;;5093886;28;19907;-72
2023/10/26 12:38:42;;;;;;;;;;;;;;;;;;5091096;28;19904;-72
2023/10/26 12:41:08;;;;;;;;;;;;;;;;;;5090747;28;19942;-71
2023/10/26 12:43:34;;;;;;;;;;;;;;;;;;5092197;28;20398;-71
2023/10/26 12:45:59;;;;;;;;;;;;;;;;;;5090899;28;19904;-71
2023/10/26 12:48:25;;;;;;;;;;;;;;;;;;5075403;28;19958;-71
2023/10/26 12:50:51;;;;;;;;;;;;;;;;;;5093949;28;19903;-72
2023/10/26 12:53:17;;;;;;;;;;;;;;;;;;5093256;28;20367;-71
2023/10/26 12:55:43;;;;;;;;;;;;;;;;;;5093738;28;20261;-72
2023/10/26 12:58:09;;;;;;;;;;;;;;;;;;5093673;28;19904;-71
2023/10/26 13:00:35;;;;;;;579.83;348.30;;;;;;;;;;5073666;28;20426;-72
2023/10/26 13:03:01;;;;;;;4.75;1.38;;;;;;;;;;5093130;28;20024;-72
2023/10/26 13:05:27;;;;;;;4.47;1.13;;;;;;;;;;5093130;28;20020;-72
2023/10/26 13:07:54;;;;;;;7.72;1.67;;;;;;;;;;5092086;28;20354;-71
2023/10/26 13:10:20;;;;;;;6.55;1.73;;;;;;;;;;5091209;28;20028;-71
2023/10/26 13:12:47;;;;;;;4.15;1.42;;;;;;;;;;5092931;28;20020;-72
2023/10/26 13:15:14;;;;;;;6.32;1.70;;;;;;;;;;5092485;28;20115;-71
2023/10/26 13:17:40;;;;;;;4.63;1.35;;;;;;;;;;5092270;28;20027;-71
2023/10/26 13:20:07;;;;;;;5.97;1.52;;;;;;;;;;5090872;28;20024;-71
2023/10/26 13:22:33;;;;;;;9.13;2.47;;;;;;;;;;5090983;28;20148;-71
2023/10/26 13:24:59;;;;;;;7.20;1.80;;;;;;;;;;5090837;28;20039;-72
2023/10/26 13:27:25;;;;;;;5.10;1.88;;;;;;;;;;5092752;28;20027;-71
2023/10/26 13:29:51;;;;;;;9.50;1.40;;;;;;;;;;5094848;28;20081;-71
2023/10/26 13:32:17;;;;;;;8.80;2.13;;;;;;;;;;5095223;28;20095;-71
2023/10/26 13:34:43;;;;;;;8.52;2.00;;;;;;;;;;5094531;28;20039;-71
2023/10/26 13:37:10;;;;;;;4.88;1.73;;;;;;;;;;5094113;28;20059;-71
2023/10/26 13:39:37;;;;;;;9.35;2.58;;;;;;;;;;5094535;28;20021;-70
2023/10/26 13:42:03;;;;;;;5.30;1.55;;;;;;;;;;5095025;28;20480;-70
2023/10/26 13:44:29;;;;;;;6.82;1.70;;;;;;;;;;5094556;28;20058;-71
2023/10/26 13:46:56;;;;;;;10.80;1.58;;;;;;;;;;5094873;28;20072;-71
2023/10/26 13:49:22;;;;;;;5.38;1.10;;;;;;;;;;5078039;28;20020;-71
2023/10/26 13:51:50;;;;;;;5.65;1.63;;;;;;;;;;5095852;28;20116;-71
2023/10/26 13:54:16;;;;;;;7.03;2.60;;;;;;;;;;5096332;28;20073;-71
2023/10/26 13:56:42;;;;;;;7.90;2.05;;;;;;;;;;5095817;28;20016;-71
2023/10/26 13:59:08;;;;;;;7.05;1.77;;;;;;;;;;5096337;28;20107;-71
2023/10/26 14:01:34;;;;;;;9.98;2.55;;;;;;;;;;5096287;28;20032;-71
2023/10/26 14:04:00;;;;;;;8.80;2.22;;;;;;;;;;5095772;28;20101;-71
2023/10/26 14:06:26;;;;;;;6.65;2.35;;;;;;;;;;5096081;28;20028;-71
2023/10/26 14:08:57;;;;;;;8.73;1.75;;;;;;;;;;5096067;28;20047;-72
2023/10/26 14:11:24;;;;;;;12.65;2.28;;;;;;;;;;5095832;28;20021;-71
2023/10/26 14:13:50;;;;;;;8.45;2.25;;;;;;;;;;5096008;28;20024;-71
2023/10/26 14:16:19;;;;;;;8.60;2.08;;;;;;;;;;5095935;28;20028;-71
2023/10/26 14:18:46;;;;;;;9.60;2.97;;;;;;;;;;5095637;28;20020;-71
2023/10/26 14:21:39;;;;;;;20.88;11.32;;;;;;;;;;5070936;28;20553;-71
2023/10/26 14:24:08;;;;;;;7.15;1.92;;;;;;;;;;5070778;28;20074;-72
2023/10/26 14:26:34;;;;;;;7.50;2.47;;;;;;;;;;5070284;28;20024;-72
2023/10/26 14:30:13;;;;;;;469.05;261.15;;;;;;;;;;5070634;28;20383;-72
2023/10/26 14:32:39;;;;;;;401.63;246.13;;;;;;;;;;5069142;28;20397;-71
2023/10/26 14:35:05;;;;;;;;;;;;;;;;;;5069715;28;20024;-71
2023/10/26 14:37:31;;;;;;;;;;;;;;;;;;5070954;28;19950;-71
2023/10/26 14:39:57;;;;;;;;;;;;;;;;;;5070494;28;20018;-71
2023/10/26 14:42:23;;;;;;;;;;;;;;;;;;5070876;28;19944;-71
2023/10/26 14:44:49;;;;;;;;;;;;;;;;;;5070828;28;19905;-71
2023/10/26 14:47:15;;;;;;;;;;;;;;;;;;5070463;28;19949;-71
2023/10/26 14:49:41;;;;;;;;;;;;;;;;;;5069448;28;20015;-71
2023/10/26 14:52:07;;;;;;;;;;;;;;;;;;5070746;28;19905;-71
2023/10/26 14:54:33;;;;;;;;;;;;;;;;;;5070264;28;19908;-71
2023/10/26 14:57:00;;;;;;;;;;;;;;;;;;5070727;28;19990;-71
2023/10/26 14:59:26;;;;;;;;;;;;;;;;;;5070607;28;20053;-72
2023/10/26 15:01:51;;;;;;;;;;;;;;;;;;5070180;28;19952;-71
2023/10/26 15:04:17;;;;;;;;;;;;;;;;;;5069222;28;19904;-71
2023/10/26 15:06:47;;;;;;;;;;;;;;;;;;5070347;28;19908;-71
2023/10/26 15:09:14;;;;;;;;;;;;;;;;;;5069975;28;19921;-71
2023/10/26 15:11:39;;;;;;;;;;;;;;;;;;5070326;28;19910;-71
2023/10/26 15:14:08;;;;;;;;;;;;;;;;;;5069868;28;19905;-71
2023/10/26 15:16:34;;;;;;;;;;;;;;;;;;5070217;28;19911;-71
2023/10/26 15:19:00;;;;;;;;;;;;;;;;;;5070134;28;19908;-71
2023/10/26 15:21:26;;;;;;;;;;;;;;;;;;5068439;28;19905;-71
2023/10/26 15:23:52;;;;;;;;;;;;;;;;;;5070040;28;19999;-71
2023/10/26 15:26:18;;;;;;;;;;;;;;;;;;5070025;28;19908;-71
2023/10/26 15:28:44;;;;;;;;;;;;;;;;;;5069481;28;19924;-71
2023/10/26 15:31:10;;;;;;;;;;;;;;;;;;5069901;28;20222;-71
2023/10/26 15:33:36;;;;;;;;;;;;;;;;;;5068595;28;19904;-70
2023/10/26 15:36:03;;;;;;;;;;;;;;;;;;5069396;28;19905;-70
2023/10/26 15:38:29;;;;;;;;;;;;;;;;;;5068742;28;19905;-71
2023/10/26 15:40:55;;;;;;;;;;;;;;;;;;5058809;28;19905;-71
2023/10/26 15:43:21;;;;;;;;;;;;;;;;;;5056153;28;19905;-71
2023/10/26 15:45:47;;;;;;;;;;;;;;;;;;5056504;28;19905;-71
2023/10/26 15:48:13;;;;;;;;;;;;;;;;;;5056432;28;19934;-71
2023/10/26 15:50:39;;;;;;;;;;;;;;;;;;5055987;28;19908;-71
2023/10/26 15:53:05;;;;;;;;;;;;;;;;;;5055079;28;19905;-71
2023/10/26 15:55:31;;;;;;;;;;;;;;;;;;5056250;28;19991;-71
2023/10/26 15:57:57;;;;;;;;;;;;;;;;;;5055843;28;19905;-71
2023/10/26 16:00:23;;;;;;;;;;;;;;;;;;5056034;28;19916;-72
2023/10/26 16:02:49;;;;;;;;;;;;;;;;;;5056136;28;19967;-71
2023/10/26 16:05:16;;;;;;;;;;;;;;;;;;5055715;28;19987;-70
2023/10/26 16:09:31;;;;;;;;;;;;;;;;;;5112084;27;19916;-72
2023/10/26 16:11:57;;;;;;;;;;;;;;;;;;5110136;28;19977;-71
2023/10/26 16:15:36;;;;;;;;;;;;;;;;;;5092171;27;20284;-70
2023/10/26 16:18:02;;;;;;;;;;;;;;;;;;5089878;28;20003;-71
2023/10/26 16:20:28;;;;;;;;;;;;;;;;;;5091277;28;19909;-71
2023/10/26 16:25:17;;;;;;;;;;;;;;;;;;5111408;27;19916;-70
2023/10/26 16:27:43;;;;;;;;;;;;;;;;;;5111737;28;20011;-70
2023/10/26 16:30:09;;;;;;;;;;;;;;;;;;5111598;28;19961;-70
2023/10/26 16:32:36;;;;;;;;;;;;;;;;;;5111308;28;19918;-70
2023/10/26 16:35:04;;;;;;;;;;;;;;;;;;5111842;28;20317;-71
2023/10/26 16:37:30;;;;;;;;;;;;;;;;;;5111546;28;19959;-70
2023/10/26 16:39:56;;;;;;;;;;;;;;;;;;5111041;28;19915;-70
2023/10/26 16:42:22;;;;;;;;;;;;;;;;;;5111395;28;19908;-70
2023/10/26 16:44:48;;;;;;;;;;;;;;;;;;5109982;28;20018;-71
2023/10/26 16:47:14;;;;;;;;;;;;;;;;;;5109637;28;19993;-70